UGSB

Details ICAO UGSB (BUS)
Name BATUMI
Region Georgia
Timezone Asia/Tbilisi (UTC+4.0)
Plans Departing 190
Arriving 211
Stats Elevation 105 ft / 32 m (AMSL)
Location 41.609700° 41.600200°
Runways 1
Magnetic Variation 6.668° E
Sunrise 2019-05-22 01:49:55 UTC / 2019-05-22 05:49:55 Local
Sunset 2019-05-22 16:33:25 UTC / 2019-05-22 20:33:25 Local
Advertisement - Login to hide

Runways

ID Width Length Bearing (true/mag) Surface Threshold Overrun Markings Lighting
13 148 ft / 45 m 8,210 ft / 2,502 m 130.99° / 124.33° ASPHALT 0 ft / 0 m 0 ft / 0 m PREC-APP CENTERLINE EDGE THRESHOLD ALSF-II TDZ REIL-OMNI
31 148 ft / 45 m 8,210 ft / 2,502 m 311.01° / 304.34° ASPHALT 0 ft / 0 m 0 ft / 0 m PREC-APP CENTERLINE EDGE THRESHOLD ALSF-II TDZ REIL-OMNI

Approach Navaids

Runway Type Ident Frequency Range Bearing (true/mag) Slope Elevation
13 LOC-ILS ILU 110.30 MHz 18 nm / 33 km 130.94° / 124.27° - 121 ft / 37 m (AMSL)
13 GS ILU 110.30 MHz 10 nm / 19 km 131.63° / 124.96° 2.50° 127 ft / 39 m (AMSL)

Map

Weather


0- 5 10 15 20 25 30 35+ Temperature / °C

Clouds and Precipitation
Forecast for 2019-05-22 18:00 UTC. Updated 2 hours ago

Ground ~20,000 ft ~40,000 ft Winds

METAR

UGSB 221700Z 07002KT CAVOK 19/16 Q1016 NOSIG

TAF

TAF UGSB 221100Z 2212/2312 13010KT 9999 -SHRA SCT025 BKN070 TX22/2310Z TN18/2223Z TEMPO 2212/2221 VRB17KT TSRA SCT010 BKN025CB

Frequencies

Tower 118.60 MHz
Warning: Do not use this data for real-world aviation or navigation. No guarantee of current accuracy is given.